sensor_id;sensor_type;location;lat;lon;timestamp;temperature;humidity
18658;DHT22;9458;50.942;5.074;2023-09-07T00:00:35;20.20;99.90
18658;DHT22;9458;50.942;5.074;2023-09-07T00:03:11;20.20;99.90
18658;DHT22;9458;50.942;5.074;2023-09-07T00:05:58;20.20;99.90
18658;DHT22;9458;50.942;5.074;2023-09-07T00:08:31;20.20;99.90
18658;DHT22;9458;50.942;5.074;2023-09-07T00:11:02;20.10;99.90
18658;DHT22;9458;50.942;5.074;2023-09-07T00:13:34;20.10;99.90
18658;DHT22;9458;50.942;5.074;2023-09-07T00:16:02;20.00;99.90
18658;DHT22;9458;50.942;5.074;2023-09-07T00:18:31;20.00;99.90
18658;DHT22;9458;50.942;5.074;2023-09-07T00:21:05;20.00;99.90
18658;DHT22;9458;50.942;5.074;2023-09-07T00:23:33;19.90;99.90
18658;DHT22;9458;50.942;5.074;2023-09-07T00:26:00;19.90;99.90
18658;DHT22;9458;50.942;5.074;2023-09-07T00:28:39;20.00;99.90
18658;DHT22;9458;50.942;5.074;2023-09-07T00:31:09;19.90;99.90
18658;DHT22;9458;50.942;5.074;2023-09-07T00:33:36;19.90;99.90
18658;DHT22;9458;50.942;5.074;2023-09-07T00:36:04;19.80;99.90
18658;DHT22;9458;50.942;5.074;2023-09-07T00:38:33;19.70;99.90
18658;DHT22;9458;50.942;5.074;2023-09-07T00:41:00;19.60;99.90
18658;DHT22;9458;50.942;5.074;2023-09-07T00:43:27;19.60;99.90
18658;DHT22;9458;50.942;5.074;2023-09-07T00:45:56;19.60;99.90
18658;DHT22;9458;50.942;5.074;2023-09-07T00:48:23;19.60;99.90
18658;DHT22;9458;50.942;5.074;2023-09-07T00:50:50;19.50;99.90
18658;DHT22;9458;50.942;5.074;2023-09-07T00:53:17;19.50;99.90
18658;DHT22;9458;50.942;5.074;2023-09-07T00:55:44;19.50;99.90
18658;DHT22;9458;50.942;5.074;2023-09-07T00:58:12;19.50;99.90
18658;DHT22;9458;50.942;5.074;2023-09-07T01:00:39;19.50;99.90
18658;DHT22;9458;50.942;5.074;2023-09-07T01:03:10;19.50;99.90
18658;DHT22;9458;50.942;5.074;2023-09-07T01:05:41;19.50;99.90
18658;DHT22;9458;50.942;5.074;2023-09-07T01:08:12;19.40;99.90
18658;DHT22;9458;50.942;5.074;2023-09-07T01:10:44;19.50;99.90
18658;DHT22;9458;50.942;5.074;2023-09-07T01:13:12;19.40;99.90
18658;DHT22;9458;50.942;5.074;2023-09-07T01:15:39;19.30;99.90
18658;DHT22;9458;50.942;5.074;2023-09-07T01:18:06;19.30;99.90
18658;DHT22;9458;50.942;5.074;2023-09-07T01:20:36;19.20;99.90
18658;DHT22;9458;50.942;5.074;2023-09-07T01:23:05;19.20;99.90
18658;DHT22;9458;50.942;5.074;2023-09-07T01:25:33;19.10;99.90
18658;DHT22;9458;50.942;5.074;2023-09-07T01:28:01;19.00;99.90
18658;DHT22;9458;50.942;5.074;2023-09-07T01:30:28;19.10;99.90
18658;DHT22;9458;50.942;5.074;2023-09-07T01:32:56;19.10;99.90
18658;DHT22;9458;50.942;5.074;2023-09-07T01:35:23;19.20;99.90
18658;DHT22;9458;50.942;5.074;2023-09-07T01:37:51;19.30;99.90
18658;DHT22;9458;50.942;5.074;2023-09-07T01:40:21;19.20;99.90
18658;DHT22;9458;50.942;5.074;2023-09-07T01:42:48;19.10;99.90
18658;DHT22;9458;50.942;5.074;2023-09-07T01:45:15;19.10;99.90
18658;DHT22;9458;50.942;5.074;2023-09-07T01:47:42;19.00;99.90
18658;DHT22;9458;50.942;5.074;2023-09-07T01:50:10;19.00;99.90
18658;DHT22;9458;50.942;5.074;2023-09-07T01:52:37;19.00;99.90
18658;DHT22;9458;50.942;5.074;2023-09-07T01:55:05;18.90;99.90
18658;DHT22;9458;50.942;5.074;2023-09-07T01:57:34;18.90;99.90
18658;DHT22;9458;50.942;5.074;2023-09-07T02:00:01;18.80;99.90
18658;DHT22;9458;50.942;5.074;2023-09-07T02:02:31;18.80;99.90
18658;DHT22;9458;50.942;5.074;2023-09-07T02:04:58;18.70;99.90
18658;DHT22;9458;50.942;5.074;2023-09-07T02:07:25;18.70;99.90
18658;DHT22;9458;50.942;5.074;2023-09-07T02:09:52;18.60;99.90
18658;DHT22;9458;50.942;5.074;2023-09-07T02:12:19;18.60;99.90
18658;DHT22;9458;50.942;5.074;2023-09-07T02:14:48;18.60;99.90
18658;DHT22;9458;50.942;5.074;2023-09-07T02:17:15;18.70;99.90
18658;DHT22;9458;50.942;5.074;2023-09-07T02:19:44;18.70;99.90
18658;DHT22;9458;50.942;5.074;2023-09-07T02:22:11;18.80;99.90
18658;DHT22;9458;50.942;5.074;2023-09-07T02:24:39;18.70;99.90
18658;DHT22;9458;50.942;5.074;2023-09-07T02:27:06;18.70;99.90
18658;DHT22;9458;50.942;5.074;2023-09-07T02:29:33;18.70;99.90
18658;DHT22;9458;50.942;5.074;2023-09-07T02:32:02;18.70;99.90
18658;DHT22;9458;50.942;5.074;2023-09-07T02:34:29;18.70;99.90
18658;DHT22;9458;50.942;5.074;2023-09-07T02:36:56;18.60;99.90
18658;DHT22;9458;50.942;5.074;2023-09-07T02:39:23;18.50;99.90
18658;DHT22;9458;50.942;5.074;2023-09-07T02:41:51;18.50;99.90
18658;DHT22;9458;50.942;5.074;2023-09-07T02:44:18;18.50;99.90
18658;DHT22;9458;50.942;5.074;2023-09-07T02:46:45;18.50;99.90
18658;DHT22;9458;50.942;5.074;2023-09-07T02:49:14;18.40;99.90
18658;DHT22;9458;50.942;5.074;2023-09-07T02:51:41;18.40;99.90
18658;DHT22;9458;50.942;5.074;2023-09-07T02:54:08;18.30;99.90
18658;DHT22;9458;50.942;5.074;2023-09-07T02:56:36;18.30;99.90
18658;DHT22;9458;50.942;5.074;2023-09-07T02:59:03;18.20;99.90
18658;DHT22;9458;50.942;5.074;2023-09-07T03:01:30;18.10;99.90
18658;DHT22;9458;50.942;5.074;2023-09-07T03:03:58;18.10;99.90
18658;DHT22;9458;50.942;5.074;2023-09-07T03:06:26;18.10;99.90
18658;DHT22;9458;50.942;5.074;2023-09-07T03:08:53;18.20;99.90
18658;DHT22;9458;50.942;5.074;2023-09-07T03:11:20;18.20;99.90
18658;DHT22;9458;50.942;5.074;2023-09-07T03:13:47;18.20;99.90
18658;DHT22;9458;50.942;5.074;2023-09-07T03:16:15;18.10;99.90
18658;DHT22;9458;50.942;5.074;2023-09-07T03:18:42;18.10;99.90
18658;DHT22;9458;50.942;5.074;2023-09-07T03:21:09;18.10;99.90
18658;DHT22;9458;50.942;5.074;2023-09-07T03:23:38;18.10;99.90
18658;DHT22;9458;50.942;5.074;2023-09-07T03:26:10;18.00;99.90
18658;DHT22;9458;50.942;5.074;2023-09-07T03:28:37;18.00;99.90
18658;DHT22;9458;50.942;5.074;2023-09-07T03:31:04;17.90;99.90
18658;DHT22;9458;50.942;5.074;2023-09-07T03:33:32;18.00;99.90
18658;DHT22;9458;50.942;5.074;2023-09-07T03:36:00;17.90;99.90
18658;DHT22;9458;50.942;5.074;2023-09-07T03:38:26;17.90;99.90
18658;DHT22;9458;50.942;5.074;2023-09-07T03:40:55;17.90;99.90
18658;DHT22;9458;50.942;5.074;2023-09-07T03:43:22;17.90;99.90
18658;DHT22;9458;50.942;5.074;2023-09-07T03:45:50;17.90;99.90
18658;DHT22;9458;50.942;5.074;2023-09-07T03:48:17;17.90;99.90
18658;DHT22;9458;50.942;5.074;2023-09-07T03:50:45;17.90;99.90
18658;DHT22;9458;50.942;5.074;2023-09-07T03:53:12;17.90;99.90
18658;DHT22;9458;50.942;5.074;2023-09-07T03:55:42;17.80;99.90
18658;DHT22;9458;50.942;5.074;2023-09-07T03:58:11;17.70;99.90
18658;DHT22;9458;50.942;5.074;2023-09-07T04:00:38;17.70;99.90
18658;DHT22;9458;50.942;5.074;2023-09-07T04:03:06;17.80;99.90
18658;DHT22;9458;50.942;5.074;2023-09-07T04:05:33;17.60;99.90
18658;DHT22;9458;50.942;5.074;2023-09-07T04:08:01;17.60;99.90
18658;DHT22;9458;50.942;5.074;2023-09-07T04:10:28;17.60;99.90
18658;DHT22;9458;50.942;5.074;2023-09-07T04:12:55;17.60;99.90
18658;DHT22;9458;50.942;5.074;2023-09-07T04:15:24;17.50;99.90
18658;DHT22;9458;50.942;5.074;2023-09-07T04:17:52;17.50;99.90
18658;DHT22;9458;50.942;5.074;2023-09-07T04:20:20;17.50;99.90
18658;DHT22;9458;50.942;5.074;2023-09-07T04:22:48;17.40;99.90
18658;DHT22;9458;50.942;5.074;2023-09-07T04:25:15;17.40;99.90
18658;DHT22;9458;50.942;5.074;2023-09-07T04:27:42;17.40;99.90
18658;DHT22;9458;50.942;5.074;2023-09-07T04:30:09;17.40;99.90
18658;DHT22;9458;50.942;5.074;2023-09-07T04:32:38;17.40;99.90
18658;DHT22;9458;50.942;5.074;2023-09-07T04:35:06;17.40;99.90
18658;DHT22;9458;50.942;5.074;2023-09-07T04:37:33;17.40;99.90
18658;DHT22;9458;50.942;5.074;2023-09-07T04:40:00;17.40;99.90
18658;DHT22;9458;50.942;5.074;2023-09-07T04:42:28;17.40;99.90
18658;DHT22;9458;50.942;5.074;2023-09-07T04:44:55;17.40;99.90
18658;DHT22;9458;50.942;5.074;2023-09-07T04:47:23;17.30;99.90
18658;DHT22;9458;50.942;5.074;2023-09-07T04:49:51;17.30;99.90
18658;DHT22;9458;50.942;5.074;2023-09-07T04:52:18;17.30;99.90
18658;DHT22;9458;50.942;5.074;2023-09-07T04:54:45;17.30;99.90
18658;DHT22;9458;50.942;5.074;2023-09-07T04:57:13;17.30;99.90
18658;DHT22;9458;50.942;5.074;2023-09-07T04:59:40;17.30;99.90
18658;DHT22;9458;50.942;5.074;2023-09-07T05:02:07;17.30;99.90
18658;DHT22;9458;50.942;5.074;2023-09-07T05:04:34;17.30;99.90
18658;DHT22;9458;50.942;5.074;2023-09-07T05:07:02;17.30;99.90
18658;DHT22;9458;50.942;5.074;2023-09-07T05:09:30;17.20;99.90
18658;DHT22;9458;50.942;5.074;2023-09-07T05:11:57;17.20;99.90
18658;DHT22;9458;50.942;5.074;2023-09-07T05:14:24;17.20;99.90
18658;DHT22;9458;50.942;5.074;2023-09-07T05:16:52;17.10;99.90
18658;DHT22;9458;50.942;5.074;2023-09-07T05:19:21;17.00;99.90
18658;DHT22;9458;50.942;5.074;2023-09-07T05:21:48;17.00;99.90
18658;DHT22;9458;50.942;5.074;2023-09-07T05:24:17;17.00;99.90
18658;DHT22;9458;50.942;5.074;2023-09-07T05:26:44;17.10;99.90
18658;DHT22;9458;50.942;5.074;2023-09-07T05:29:11;17.30;99.90
18658;DHT22;9458;50.942;5.074;2023-09-07T05:31:39;17.30;99.90
18658;DHT22;9458;50.942;5.074;2023-09-07T05:34:06;17.40;99.90
18658;DHT22;9458;50.942;5.074;2023-09-07T05:36:34;17.40;99.90
18658;DHT22;9458;50.942;5.074;2023-09-07T05:39:01;17.50;99.90
18658;DHT22;9458;50.942;5.074;2023-09-07T05:41:32;17.50;99.90
18658;DHT22;9458;50.942;5.074;2023-09-07T05:43:59;18.00;99.90
18658;DHT22;9458;50.942;5.074;2023-09-07T05:46:26;19.30;99.90
18658;DHT22;9458;50.942;5.074;2023-09-07T05:48:54;20.70;99.90
18658;DHT22;9458;50.942;5.074;2023-09-07T05:51:21;21.80;99.90
18658;DHT22;9458;50.942;5.074;2023-09-07T05:53:48;22.60;99.90
18658;DHT22;9458;50.942;5.074;2023-09-07T05:56:15;23.40;99.90
18658;DHT22;9458;50.942;5.074;2023-09-07T05:58:43;24.00;99.90
18658;DHT22;9458;50.942;5.074;2023-09-07T06:01:11;24.50;99.90
18658;DHT22;9458;50.942;5.074;2023-09-07T06:03:48;24.80;99.90
18658;DHT22;9458;50.942;5.074;2023-09-07T06:06:25;25.50;99.90
18658;DHT22;9458;50.942;5.074;2023-09-07T06:09:01;26.00;99.90
18658;DHT22;9458;50.942;5.074;2023-09-07T06:11:29;26.40;99.90
18658;DHT22;9458;50.942;5.074;2023-09-07T06:13:59;26.90;99.90
18658;DHT22;9458;50.942;5.074;2023-09-07T06:16:26;27.10;99.90
18658;DHT22;9458;50.942;5.074;2023-09-07T06:18:53;27.50;99.90
18658;DHT22;9458;50.942;5.074;2023-09-07T06:21:20;28.10;99.90
18658;DHT22;9458;50.942;5.074;2023-09-07T06:23:47;28.30;99.90
18658;DHT22;9458;50.942;5.074;2023-09-07T06:26:15;28.70;99.90
18658;DHT22;9458;50.942;5.074;2023-09-07T06:28:43;29.00;99.90
18658;DHT22;9458;50.942;5.074;2023-09-07T06:31:12;29.70;99.90
18658;DHT22;9458;50.942;5.074;2023-09-07T06:33:39;30.00;99.90
18658;DHT22;9458;50.942;5.074;2023-09-07T06:36:06;30.30;99.90
18658;DHT22;9458;50.942;5.074;2023-09-07T06:38:33;30.20;99.90
18658;DHT22;9458;50.942;5.074;2023-09-07T06:41:01;30.40;99.90
18658;DHT22;9458;50.942;5.074;2023-09-07T06:43:28;30.80;99.90
18658;DHT22;9458;50.942;5.074;2023-09-07T06:46:01;31.10;99.90
18658;DHT22;9458;50.942;5.074;2023-09-07T06:48:29;31.30;99.90
18658;DHT22;9458;50.942;5.074;2023-09-07T06:51:00;31.70;99.90
18658;DHT22;9458;50.942;5.074;2023-09-07T06:53:28;31.90;99.90
18658;DHT22;9458;50.942;5.074;2023-09-07T06:55:59;31.80;99.90
18658;DHT22;9458;50.942;5.074;2023-09-07T06:58:27;32.30;99.90
18658;DHT22;9458;50.942;5.074;2023-09-07T07:00:56;32.20;99.90
18658;DHT22;9458;50.942;5.074;2023-09-07T07:03:25;32.20;99.90
18658;DHT22;9458;50.942;5.074;2023-09-07T07:05:54;32.30;99.90
18658;DHT22;9458;50.942;5.074;2023-09-07T07:08:21;32.50;99.90
18658;DHT22;9458;50.942;5.074;2023-09-07T07:10:48;32.50;99.90
18658;DHT22;9458;50.942;5.074;2023-09-07T07:13:15;32.90;99.90
18658;DHT22;9458;50.942;5.074;2023-09-07T07:15:42;32.80;99.90
18658;DHT22;9458;50.942;5.074;2023-09-07T07:18:09;32.80;99.90
18658;DHT22;9458;50.942;5.074;2023-09-07T07:20:38;33.00;99.90
18658;DHT22;9458;50.942;5.074;2023-09-07T07:23:06;33.10;99.90
18658;DHT22;9458;50.942;5.074;2023-09-07T07:25:33;33.30;99.90
18658;DHT22;9458;50.942;5.074;2023-09-07T07:28:00;33.30;99.90
18658;DHT22;9458;50.942;5.074;2023-09-07T07:30:31;33.00;99.90
18658;DHT22;9458;50.942;5.074;2023-09-07T07:32:58;33.60;99.90
18658;DHT22;9458;50.942;5.074;2023-09-07T07:35:25;33.20;99.90
18658;DHT22;9458;50.942;5.074;2023-09-07T07:37:53;33.30;99.90
18658;DHT22;9458;50.942;5.074;2023-09-07T07:40:21;33.50;99.60
18658;DHT22;9458;50.942;5.074;2023-09-07T07:42:50;33.30;99.80
18658;DHT22;9458;50.942;5.074;2023-09-07T07:45:18;33.60;99.90
18658;DHT22;9458;50.942;5.074;2023-09-07T07:47:47;33.70;99.40
18658;DHT22;9458;50.942;5.074;2023-09-07T07:50:15;33.60;99.80
18658;DHT22;9458;50.942;5.074;2023-09-07T07:52:43;33.80;99.90
18658;DHT22;9458;50.942;5.074;2023-09-07T07:55:10;33.60;99.90
18658;DHT22;9458;50.942;5.074;2023-09-07T07:57:40;34.20;99.90
18658;DHT22;9458;50.942;5.074;2023-09-07T08:00:07;34.60;99.90
18658;DHT22;9458;50.942;5.074;2023-09-07T08:02:39;34.30;99.30
18658;DHT22;9458;50.942;5.074;2023-09-07T08:05:06;34.50;99.40
18658;DHT22;9458;50.942;5.074;2023-09-07T08:07:33;34.60;99.60
18658;DHT22;9458;50.942;5.074;2023-09-07T08:10:00;35.10;99.90
18658;DHT22;9458;50.942;5.074;2023-09-07T08:12:27;35.40;99.20
18658;DHT22;9458;50.942;5.074;2023-09-07T08:14:57;35.20;98.60
18658;DHT22;9458;50.942;5.074;2023-09-07T08:17:24;35.60;98.30
18658;DHT22;9458;50.942;5.074;2023-09-07T08:19:52;35.70;98.40
18658;DHT22;9458;50.942;5.074;2023-09-07T08:22:22;35.80;97.60
18658;DHT22;9458;50.942;5.074;2023-09-07T08:24:49;35.30;98.30
18658;DHT22;9458;50.942;5.074;2023-09-07T08:27:16;35.70;97.80
18658;DHT22;9458;50.942;5.074;2023-09-07T08:29:44;35.30;98.60
18658;DHT22;9458;50.942;5.074;2023-09-07T08:32:18;34.70;98.60
18658;DHT22;9458;50.942;5.074;2023-09-07T08:34:46;34.80;99.50
18658;DHT22;9458;50.942;5.074;2023-09-07T08:37:13;34.70;99.90
18658;DHT22;9458;50.942;5.074;2023-09-07T08:39:40;34.50;99.90
18658;DHT22;9458;50.942;5.074;2023-09-07T08:42:07;34.90;99.00
18658;DHT22;9458;50.942;5.074;2023-09-07T08:44:36;34.80;98.60
18658;DHT22;9458;50.942;5.074;2023-09-07T08:47:04;34.30;98.80
18658;DHT22;9458;50.942;5.074;2023-09-07T08:49:33;33.80;99.90
18658;DHT22;9458;50.942;5.074;2023-09-07T08:52:02;33.80;99.90
18658;DHT22;9458;50.942;5.074;2023-09-07T08:54:30;33.60;99.90
18658;DHT22;9458;50.942;5.074;2023-09-07T08:56:57;32.80;99.90
18658;DHT22;9458;50.942;5.074;2023-09-07T08:59:24;32.80;99.90
18658;DHT22;9458;50.942;5.074;2023-09-07T09:01:55;32.30;99.90
18658;DHT22;9458;50.942;5.074;2023-09-07T09:04:22;31.40;99.90
18658;DHT22;9458;50.942;5.074;2023-09-07T09:06:51;31.40;99.90
18658;DHT22;9458;50.942;5.074;2023-09-07T09:09:21;31.10;99.90
18658;DHT22;9458;50.942;5.074;2023-09-07T09:11:49;31.50;99.90
18658;DHT22;9458;50.942;5.074;2023-09-07T09:14:17;31.40;99.90
18658;DHT22;9458;50.942;5.074;2023-09-07T09:16:48;31.20;99.90
18658;DHT22;9458;50.942;5.074;2023-09-07T09:19:16;31.20;99.90
18658;DHT22;9458;50.942;5.074;2023-09-07T09:21:44;31.30;99.90
18658;DHT22;9458;50.942;5.074;2023-09-07T09:24:12;31.40;99.90
18658;DHT22;9458;50.942;5.074;2023-09-07T09:26:42;31.50;99.90
18658;DHT22;9458;50.942;5.074;2023-09-07T09:29:09;31.40;99.90
18658;DHT22;9458;50.942;5.074;2023-09-07T09:31:37;31.20;99.90
18658;DHT22;9458;50.942;5.074;2023-09-07T09:34:05;31.50;99.90
18658;DHT22;9458;50.942;5.074;2023-09-07T09:36:34;31.20;99.90
18658;DHT22;9458;50.942;5.074;2023-09-07T09:39:02;31.30;99.90
18658;DHT22;9458;50.942;5.074;2023-09-07T09:41:32;31.60;99.90
18658;DHT22;9458;50.942;5.074;2023-09-07T09:44:00;31.80;99.90
18658;DHT22;9458;50.942;5.074;2023-09-07T09:46:29;31.90;99.90
18658;DHT22;9458;50.942;5.074;2023-09-07T09:48:58;31.60;99.90
18658;DHT22;9458;50.942;5.074;2023-09-07T09:51:26;31.20;99.90
18658;DHT22;9458;50.942;5.074;2023-09-07T09:53:54;31.30;99.90
18658;DHT22;9458;50.942;5.074;2023-09-07T09:56:22;31.50;99.90
18658;DHT22;9458;50.942;5.074;2023-09-07T09:58:51;31.70;99.90
18658;DHT22;9458;50.942;5.074;2023-09-07T10:01:18;31.30;99.90
18658;DHT22;9458;50.942;5.074;2023-09-07T10:03:55;31.10;99.90
18658;DHT22;9458;50.942;5.074;2023-09-07T10:06:33;31.10;99.90
18658;DHT22;9458;50.942;5.074;2023-09-07T10:09:11;31.00;99.90
18658;DHT22;9458;50.942;5.074;2023-09-07T10:11:42;30.90;99.90
18658;DHT22;9458;50.942;5.074;2023-09-07T10:14:11;30.90;99.90
18658;DHT22;9458;50.942;5.074;2023-09-07T10:16:43;30.80;99.90
18658;DHT22;9458;50.942;5.074;2023-09-07T10:19:13;30.50;99.90
18658;DHT22;9458;50.942;5.074;2023-09-07T10:21:41;30.70;99.90
18658;DHT22;9458;50.942;5.074;2023-09-07T10:24:09;30.60;99.90
18658;DHT22;9458;50.942;5.074;2023-09-07T10:26:36;30.70;99.90
18658;DHT22;9458;50.942;5.074;2023-09-07T10:29:03;30.90;99.90
18658;DHT22;9458;50.942;5.074;2023-09-07T10:31:32;30.60;99.90
18658;DHT22;9458;50.942;5.074;2023-09-07T10:34:09;30.40;99.90
18658;DHT22;9458;50.942;5.074;2023-09-07T10:36:38;30.20;98.80
18658;DHT22;9458;50.942;5.074;2023-09-07T10:39:05;30.20;99.90
18658;DHT22;9458;50.942;5.074;2023-09-07T10:44:38;30.00;99.90
18658;DHT22;9458;50.942;5.074;2023-09-07T10:47:07;30.10;99.90
18658;DHT22;9458;50.942;5.074;2023-09-07T10:49:35;30.20;99.90
18658;DHT22;9458;50.942;5.074;2023-09-07T10:52:02;30.20;99.90
18658;DHT22;9458;50.942;5.074;2023-09-07T10:54:30;30.00;99.90
18658;DHT22;9458;50.942;5.074;2023-09-07T10:56:57;29.80;99.90
18658;DHT22;9458;50.942;5.074;2023-09-07T10:59:35;29.90;99.90
18658;DHT22;9458;50.942;5.074;2023-09-07T11:02:04;29.90;99.90
18658;DHT22;9458;50.942;5.074;2023-09-07T11:04:32;30.00;99.90
18658;DHT22;9458;50.942;5.074;2023-09-07T11:06:59;30.00;99.90
18658;DHT22;9458;50.942;5.074;2023-09-07T11:09:29;29.80;99.90
18658;DHT22;9458;50.942;5.074;2023-09-07T11:11:57;29.90;99.90
18658;DHT22;9458;50.942;5.074;2023-09-07T11:14:28;29.80;99.90
18658;DHT22;9458;50.942;5.074;2023-09-07T11:16:55;29.80;99.90
18658;DHT22;9458;50.942;5.074;2023-09-07T11:19:23;30.10;99.90
18658;DHT22;9458;50.942;5.074;2023-09-07T11:21:54;30.00;99.90
18658;DHT22;9458;50.942;5.074;2023-09-07T11:24:21;30.00;99.90
18658;DHT22;9458;50.942;5.074;2023-09-07T11:26:50;29.80;99.90
18658;DHT22;9458;50.942;5.074;2023-09-07T11:29:17;29.70;99.90
18658;DHT22;9458;50.942;5.074;2023-09-07T11:31:45;29.70;99.90
18658;DHT22;9458;50.942;5.074;2023-09-07T11:34:13;29.90;99.90
18658;DHT22;9458;50.942;5.074;2023-09-07T11:36:40;29.60;99.90
18658;DHT22;9458;50.942;5.074;2023-09-07T11:39:09;29.80;99.90
18658;DHT22;9458;50.942;5.074;2023-09-07T11:41:39;29.80;99.90
18658;DHT22;9458;50.942;5.074;2023-09-07T11:44:06;29.50;99.90
18658;DHT22;9458;50.942;5.074;2023-09-07T11:46:34;29.60;99.90
18658;DHT22;9458;50.942;5.074;2023-09-07T11:49:01;29.40;99.90
18658;DHT22;9458;50.942;5.074;2023-09-07T11:51:31;29.40;99.90
18658;DHT22;9458;50.942;5.074;2023-09-07T11:53:58;29.40;99.90
18658;DHT22;9458;50.942;5.074;2023-09-07T11:56:27;29.60;99.90
18658;DHT22;9458;50.942;5.074;2023-09-07T11:58:54;29.60;99.90
18658;DHT22;9458;50.942;5.074;2023-09-07T12:01:21;29.60;99.90
18658;DHT22;9458;50.942;5.074;2023-09-07T12:03:48;29.40;99.90
18658;DHT22;9458;50.942;5.074;2023-09-07T12:06:16;29.40;99.90
18658;DHT22;9458;50.942;5.074;2023-09-07T12:08:57;29.40;99.90
18658;DHT22;9458;50.942;5.074;2023-09-07T12:11:24;29.40;99.90
18658;DHT22;9458;50.942;5.074;2023-09-07T12:13:54;29.40;99.90
18658;DHT22;9458;50.942;5.074;2023-09-07T12:16:22;29.40;99.90
18658;DHT22;9458;50.942;5.074;2023-09-07T12:18:49;29.40;99.90
18658;DHT22;9458;50.942;5.074;2023-09-07T12:21:16;29.40;99.90
18658;DHT22;9458;50.942;5.074;2023-09-07T12:23:43;29.40;99.90
18658;DHT22;9458;50.942;5.074;2023-09-07T12:26:11;29.50;99.90
18658;DHT22;9458;50.942;5.074;2023-09-07T12:28:38;29.40;99.90
18658;DHT22;9458;50.942;5.074;2023-09-07T12:31:07;29.60;99.90
18658;DHT22;9458;50.942;5.074;2023-09-07T12:33:34;29.60;99.90
18658;DHT22;9458;50.942;5.074;2023-09-07T12:36:03;29.60;99.90
18658;DHT22;9458;50.942;5.074;2023-09-07T12:38:34;29.70;99.90
18658;DHT22;9458;50.942;5.074;2023-09-07T12:41:01;29.70;99.90
18658;DHT22;9458;50.942;5.074;2023-09-07T12:43:29;29.50;99.90
18658;DHT22;9458;50.942;5.074;2023-09-07T12:45:56;29.50;99.90
18658;DHT22;9458;50.942;5.074;2023-09-07T12:48:26;29.50;99.90
18658;DHT22;9458;50.942;5.074;2023-09-07T12:50:53;29.60;99.90
18658;DHT22;9458;50.942;5.074;2023-09-07T12:53:21;29.60;99.90
18658;DHT22;9458;50.942;5.074;2023-09-07T12:55:50;29.60;99.90
18658;DHT22;9458;50.942;5.074;2023-09-07T12:58:17;29.70;99.90
18658;DHT22;9458;50.942;5.074;2023-09-07T13:00:45;29.70;99.90
18658;DHT22;9458;50.942;5.074;2023-09-07T13:03:13;29.60;99.90
18658;DHT22;9458;50.942;5.074;2023-09-07T13:05:42;29.60;99.90
18658;DHT22;9458;50.942;5.074;2023-09-07T13:08:09;29.70;99.90
18658;DHT22;9458;50.942;5.074;2023-09-07T13:10:36;29.70;99.90
18658;DHT22;9458;50.942;5.074;2023-09-07T13:13:04;29.60;99.90
18658;DHT22;9458;50.942;5.074;2023-09-07T13:15:31;29.70;99.90
18658;DHT22;9458;50.942;5.074;2023-09-07T13:17:58;29.70;99.90
18658;DHT22;9458;50.942;5.074;2023-09-07T13:20:25;29.80;99.90
18658;DHT22;9458;50.942;5.074;2023-09-07T13:22:54;29.80;99.90
18658;DHT22;9458;50.942;5.074;2023-09-07T13:25:21;29.90;99.90
18658;DHT22;9458;50.942;5.074;2023-09-07T13:27:48;29.80;99.90
18658;DHT22;9458;50.942;5.074;2023-09-07T13:30:16;29.80;99.90
18658;DHT22;9458;50.942;5.074;2023-09-07T13:32:43;29.80;99.90
18658;DHT22;9458;50.942;5.074;2023-09-07T13:35:12;29.80;99.90
18658;DHT22;9458;50.942;5.074;2023-09-07T13:37:41;29.80;99.90
18658;DHT22;9458;50.942;5.074;2023-09-07T13:40:10;29.80;99.90
18658;DHT22;9458;50.942;5.074;2023-09-07T13:42:40;29.80;99.90
18658;DHT22;9458;50.942;5.074;2023-09-07T13:45:08;29.80;99.90
18658;DHT22;9458;50.942;5.074;2023-09-07T13:47:36;29.80;99.90
18658;DHT22;9458;50.942;5.074;2023-09-07T13:50:04;29.80;99.90
18658;DHT22;9458;50.942;5.074;2023-09-07T13:52:31;29.80;99.90
18658;DHT22;9458;50.942;5.074;2023-09-07T13:54:58;29.80;99.90
18658;DHT22;9458;50.942;5.074;2023-09-07T13:57:27;29.80;99.90
18658;DHT22;9458;50.942;5.074;2023-09-07T13:59:54;29.90;99.90
18658;DHT22;9458;50.942;5.074;2023-09-07T14:02:22;29.90;99.90
18658;DHT22;9458;50.942;5.074;2023-09-07T14:04:51;29.90;99.90
18658;DHT22;9458;50.942;5.074;2023-09-07T14:07:18;29.90;99.90
18658;DHT22;9458;50.942;5.074;2023-09-07T14:09:45;29.90;99.90
18658;DHT22;9458;50.942;5.074;2023-09-07T14:12:12;29.90;99.90
18658;DHT22;9458;50.942;5.074;2023-09-07T14:14:40;29.90;99.90
18658;DHT22;9458;50.942;5.074;2023-09-07T14:17:07;30.00;99.90
18658;DHT22;9458;50.942;5.074;2023-09-07T14:19:36;30.00;99.90
18658;DHT22;9458;50.942;5.074;2023-09-07T14:22:03;30.00;99.90
18658;DHT22;9458;50.942;5.074;2023-09-07T14:24:30;30.00;99.90
18658;DHT22;9458;50.942;5.074;2023-09-07T14:26:57;30.10;99.90
18658;DHT22;9458;50.942;5.074;2023-09-07T14:29:26;30.00;99.90
18658;DHT22;9458;50.942;5.074;2023-09-07T14:31:56;30.00;99.90
18658;DHT22;9458;50.942;5.074;2023-09-07T14:34:23;29.90;99.90
18658;DHT22;9458;50.942;5.074;2023-09-07T14:36:50;30.00;99.90
18658;DHT22;9458;50.942;5.074;2023-09-07T14:39:17;29.90;99.90
18658;DHT22;9458;50.942;5.074;2023-09-07T14:41:49;29.90;99.90
18658;DHT22;9458;50.942;5.074;2023-09-07T14:44:16;29.90;99.90
18658;DHT22;9458;50.942;5.074;2023-09-07T14:46:44;29.90;99.90
18658;DHT22;9458;50.942;5.074;2023-09-07T14:49:14;29.90;99.90
18658;DHT22;9458;50.942;5.074;2023-09-07T14:51:41;29.90;99.90
18658;DHT22;9458;50.942;5.074;2023-09-07T14:54:08;29.90;99.90
18658;DHT22;9458;50.942;5.074;2023-09-07T14:56:35;29.80;99.90
18658;DHT22;9458;50.942;5.074;2023-09-07T14:59:03;29.80;99.90
18658;DHT22;9458;50.942;5.074;2023-09-07T15:01:31;29.90;99.90
18658;DHT22;9458;50.942;5.074;2023-09-07T15:03:58;29.80;99.90
18658;DHT22;9458;50.942;5.074;2023-09-07T15:06:28;29.80;99.90
18658;DHT22;9458;50.942;5.074;2023-09-07T15:08:55;29.80;99.90
18658;DHT22;9458;50.942;5.074;2023-09-07T15:11:23;29.80;99.90
18658;DHT22;9458;50.942;5.074;2023-09-07T15:13:50;29.80;99.90
18658;DHT22;9458;50.942;5.074;2023-09-07T15:16:18;29.80;99.90
18658;DHT22;9458;50.942;5.074;2023-09-07T15:18:46;29.80;99.90
18658;DHT22;9458;50.942;5.074;2023-09-07T15:21:13;29.70;99.90
18658;DHT22;9458;50.942;5.074;2023-09-07T15:23:42;29.70;99.90
18658;DHT22;9458;50.942;5.074;2023-09-07T15:26:09;29.80;99.90
18658;DHT22;9458;50.942;5.074;2023-09-07T15:28:37;29.80;99.90
18658;DHT22;9458;50.942;5.074;2023-09-07T15:31:04;29.80;99.90
18658;DHT22;9458;50.942;5.074;2023-09-07T15:33:31;29.70;99.90
18658;DHT22;9458;50.942;5.074;2023-09-07T15:35:59;29.70;99.90
18658;DHT22;9458;50.942;5.074;2023-09-07T15:38:37;29.70;99.90
18658;DHT22;9458;50.942;5.074;2023-09-07T15:41:11;29.60;99.90
18658;DHT22;9458;50.942;5.074;2023-09-07T15:43:40;29.70;99.90
18658;DHT22;9458;50.942;5.074;2023-09-07T15:46:08;29.70;99.90
18658;DHT22;9458;50.942;5.074;2023-09-07T15:48:35;29.70;99.90
18658;DHT22;9458;50.942;5.074;2023-09-07T15:51:05;29.70;99.90
18658;DHT22;9458;50.942;5.074;2023-09-07T15:53:33;29.70;99.90